Time;durP1;ratioP1;P1;durP2;ratioP2;P2;SDS_P1;SDS_P2;PMS_P1;PMS_P2;Temp;Humidity;BMP_temperature;BMP_pressure;BME280_temperature;BME280_humidity;BME280_pressure;Samples;Min_cycle;Max_cycle;Signal;HPM_P1;HPM_P2
2023/05/23 00:01:26;;;;;;;35.47;29.42;;;13.60;94.20;;;;;;5036522;28;20493;-44
2023/05/23 00:03:55;;;;;;;33.85;29.25;;;13.60;94.10;;;;;;5032973;28;20033;-45
2023/05/23 00:06:22;;;;;;;41.63;32.42;;;13.60;94.10;;;;;;5045416;28;20339;-44
2023/05/23 00:08:49;;;;;;;38.22;31.02;;;13.50;93.90;;;;;;5024118;28;20116;-45
2023/05/23 00:11:15;;;;;;;38.40;31.25;;;13.50;94.10;;;;;;5044814;28;20060;-45
2023/05/23 00:13:44;;;;;;;38.53;29.45;;;13.50;94.10;;;;;;5053718;28;20398;-44
2023/05/23 00:16:11;;;;;;;38.20;28.67;;;13.60;94.00;;;;;;5045363;28;20048;-45
2023/05/23 00:18:41;;;;;;;36.67;31.10;;;13.50;94.00;;;;;;5053677;28;20075;-45
2023/05/23 00:21:08;;;;;;;37.28;27.85;;;13.50;94.00;;;;;;5037032;28;20067;-47
2023/05/23 00:23:41;;;;;;;37.85;26.42;;;13.50;93.90;;;;;;5054208;28;20029;-45
2023/05/23 00:26:08;;;;;;;34.97;27.33;;;13.50;94.00;;;;;;5052920;28;20063;-44
2023/05/23 00:28:37;;;;;;;35.30;26.60;;;13.50;94.00;;;;;;5032321;28;20033;-45
2023/05/23 00:31:06;;;;;;;40.10;26.77;;;13.50;94.10;;;;;;5037596;28;20521;-44
2023/05/23 00:33:33;;;;;;;38.03;24.98;;;13.50;94.00;;;;;;5052361;28;20032;-45
2023/05/23 00:36:00;;;;;;;35.72;25.65;;;13.40;94.10;;;;;;5053687;28;20032;-45
2023/05/23 00:38:27;;;;;;;32.83;22.58;;;13.40;94.00;;;;;;5036261;28;20035;-45
2023/05/23 00:40:53;;;;;;;38.35;23.10;;;13.40;94.10;;;;;;5040497;28;20710;-47
2023/05/23 00:43:21;;;;;;;30.90;23.77;;;13.40;94.10;;;;;;5053690;28;20032;-45
2023/05/23 00:45:48;;;;;;;40.90;22.52;;;13.30;94.20;;;;;;5053476;28;20048;-47
2023/05/23 00:48:18;;;;;;;30.75;22.13;;;13.30;94.20;;;;;;5047251;28;20036;-46
2023/05/23 00:50:44;;;;;;;30.27;24.08;;;13.30;94.30;;;;;;5049629;28;20025;-45
2023/05/23 00:53:12;;;;;;;36.33;22.58;;;13.40;94.30;;;;;;5033658;28;20029;-46
2023/05/23 00:55:39;;;;;;;35.90;21.90;;;13.40;94.30;;;;;;5034660;28;20079;-45
2023/05/23 00:58:05;;;;;;;32.00;21.83;;;13.40;94.30;;;;;;5036699;28;20340;-45
2023/05/23 01:00:34;;;;;;;39.20;20.55;;;13.40;94.30;;;;;;5033730;28;20040;-45
2023/05/23 01:03:01;;;;;;;30.48;19.30;;;13.40;94.30;;;;;;5040232;28;20044;-45
2023/05/23 01:05:29;;;;;;;28.10;18.23;;;13.30;94.10;;;;;;5048194;28;20025;-45
2023/05/23 01:07:56;;;;;;;34.22;19.70;;;13.30;94.30;;;;;;5052245;28;20021;-45
2023/05/23 01:10:29;;;;;;;39.88;22.35;;;13.30;94.30;;;;;;5046942;28;20029;-46
2023/05/23 01:13:22;;;;;;;39.95;21.55;;;13.30;94.20;;;;;;5034457;28;20025;-45
2023/05/23 01:16:17;;;;;;;33.47;22.00;;;13.30;94.30;;;;;;5039463;28;20021;-45
2023/05/23 01:19:09;;;;;;;32.30;21.52;;;13.30;94.20;;;;;;5033123;28;20022;-45
2023/05/23 01:21:42;;;;;;;48.15;22.13;;;13.20;94.30;;;;;;5033398;28;20042;-46
2023/05/23 01:24:51;;;;;;;38.65;22.02;;;13.20;94.30;;;;;;5035749;28;20044;-45
2023/05/23 01:27:40;;;;;;;53.58;22.35;;;13.20;94.30;;;;;;5051246;28;20028;-45
2023/05/23 01:30:09;;;;;;;45.08;23.85;;;13.20;94.50;;;;;;5032865;28;20030;-45
2023/05/23 01:32:39;;;;;;;37.58;21.20;;;13.10;94.50;;;;;;5052144;28;20037;-45
2023/05/23 01:35:05;;;;;;;35.70;23.42;;;13.20;94.50;;;;;;5035441;28;20487;-45
2023/05/23 01:37:33;;;;;;;39.78;24.83;;;13.20;94.60;;;;;;5032763;28;20072;-47
2023/05/23 01:40:01;;;;;;;47.88;23.75;;;13.20;94.60;;;;;;5034198;28;20021;-45
2023/05/23 01:42:30;;;;;;;46.35;24.23;;;13.20;94.70;;;;;;5052721;28;20058;-45
2023/05/23 01:44:58;;;;;;;46.42;23.10;;;13.20;94.70;;;;;;5036284;28;20478;-45
2023/05/23 01:47:25;;;;;;;47.15;23.33;;;13.20;94.80;;;;;;5032563;28;20457;-45
2023/05/23 01:49:52;;;;;;;48.50;24.13;;;13.10;94.80;;;;;;5033122;28;20068;-45
2023/05/23 01:52:20;;;;;;;48.47;24.50;;;13.10;94.80;;;;;;5052575;28;20025;-45
2023/05/23 01:54:52;;;;;;;41.65;23.33;;;13.10;94.80;;;;;;5052789;28;20545;-45
2023/05/23 01:57:19;;;;;;;44.47;24.65;;;13.10;94.90;;;;;;5033824;28;20101;-47
2023/05/23 01:59:49;;;;;;;47.40;24.73;;;13.10;94.90;;;;;;5052058;28;20079;-44
2023/05/23 02:02:16;;;;;;;47.22;23.63;;;13.00;94.90;;;;;;5051047;28;20021;-45
2023/05/23 02:04:42;;;;;;;42.28;23.05;;;13.00;95.00;;;;;;5049533;28;20037;-44
2023/05/23 02:07:08;;;;;;;52.03;25.42;;;13.00;95.00;;;;;;5031833;28;20124;-44
2023/05/23 02:09:34;;;;;;;44.92;25.20;;;12.90;95.00;;;;;;5014970;28;20435;-44
2023/05/23 02:12:03;;;;;;;35.45;23.00;;;13.00;95.10;;;;;;5049028;28;20453;-46
2023/05/23 02:14:30;;;;;;;40.03;23.40;;;12.90;95.10;;;;;;5032527;28;20037;-44
2023/05/23 02:16:59;;;;;;;48.53;23.55;;;13.00;95.20;;;;;;5032483;28;20268;-45
2023/05/23 02:19:26;;;;;;;40.70;21.48;;;12.90;95.20;;;;;;5014873;28;20459;-46
2023/05/23 02:21:53;;;;;;;41.50;23.48;;;12.90;95.20;;;;;;5046978;28;20132;-44
2023/05/23 02:24:18;;;;;;;40.38;23.65;;;12.90;95.30;;;;;;5055603;28;20033;-44
2023/05/23 02:26:44;;;;;;;45.60;22.27;;;12.90;95.20;;;;;;5054683;28;20029;-45
2023/05/23 02:29:11;;;;;;;50.17;26.60;;;12.90;95.30;;;;;;5037916;28;20036;-45
2023/05/23 02:31:37;;;;;;;48.60;25.15;;;13.00;95.30;;;;;;5037804;28;20478;-45
2023/05/23 02:34:04;;;;;;;40.00;22.23;;;12.90;95.20;;;;;;5056234;28;20124;-45
2023/05/23 02:36:35;;;;;;;45.97;23.17;;;12.90;95.20;;;;;;5055881;28;20021;-46
2023/05/23 02:39:05;;;;;;;39.92;22.63;;;12.90;95.20;;;;;;5040852;28;20096;-44
2023/05/23 02:41:36;;;;;;;35.95;20.40;;;12.90;95.10;;;;;;5046498;28;20120;-45
2023/05/23 02:44:02;;;;;;;40.33;19.42;;;12.90;95.20;;;;;;5055563;28;20032;-46
2023/05/23 02:46:29;;;;;;;32.83;17.77;;;12.80;95.20;;;;;;5037713;28;20025;-47
2023/05/23 02:48:56;;;;;;;33.35;18.50;;;12.80;95.20;;;;;;5055590;28;20032;-45
2023/05/23 02:51:22;;;;;;;41.13;16.95;;;12.80;95.20;;;;;;5054521;28;20111;-45
2023/05/23 02:53:49;;;;;;;42.55;18.60;;;12.80;95.20;;;;;;5055717;28;20029;-46
2023/05/23 02:56:16;;;;;;;37.13;16.73;;;12.80;95.10;;;;;;5054523;28;20100;-44
2023/05/23 02:58:45;;;;;;;40.08;18.50;;;12.70;95.10;;;;;;5043099;28;20437;-43
2023/05/23 03:01:15;;;;;;;41.80;18.48;;;12.70;95.00;;;;;;5035546;28;20029;-45
2023/05/23 03:03:41;;;;;;;40.58;17.92;;;12.70;95.10;;;;;;5036006;28;20040;-45
2023/05/23 03:06:13;;;;;;;42.90;18.67;;;12.70;95.00;;;;;;5035192;28;20033;-45
2023/05/23 03:08:40;;;;;;;39.50;17.13;;;12.70;95.00;;;;;;5049085;28;20430;-45
2023/05/23 03:11:08;;;;;;;33.92;18.50;;;12.70;95.00;;;;;;5054302;28;20178;-45
2023/05/23 03:13:36;;;;;;;48.80;19.40;;;12.70;95.10;;;;;;5044021;28;20029;-44
2023/05/23 03:16:03;;;;;;;34.45;20.58;;;12.60;95.00;;;;;;5035284;28;20447;-46
2023/05/23 03:18:29;;;;;;;33.55;20.20;;;12.60;95.10;;;;;;5043544;28;20041;-44
2023/05/23 03:20:59;;;;;;;36.35;20.58;;;12.60;95.20;;;;;;5035341;28;20044;-45
2023/05/23 03:23:26;;;;;;;42.35;22.42;;;12.60;95.20;;;;;;5035512;28;20060;-44
2023/05/23 03:25:54;;;;;;;47.10;23.13;;;12.60;95.30;;;;;;5036225;28;20044;-42
2023/05/23 03:28:21;;;;;;;42.03;25.10;;;12.50;95.30;;;;;;5033416;28;20025;-43
2023/05/23 03:30:47;;;;;;;43.13;22.95;;;12.50;95.30;;;;;;5035032;28;20052;-42
2023/05/23 03:33:18;;;;;;;43.17;21.27;;;12.50;95.30;;;;;;5034847;28;20017;-42
2023/05/23 03:35:45;;;;;;;33.55;19.35;;;12.50;95.40;;;;;;5033994;28;20066;-45
2023/05/23 03:38:11;;;;;;;23.73;16.52;;;12.40;95.40;;;;;;5051059;28;20029;-43
2023/05/23 03:40:40;;;;;;;27.88;17.27;;;12.40;95.50;;;;;;5054841;28;20029;-44
2023/05/23 03:43:07;;;;;;;32.78;17.35;;;12.40;95.50;;;;;;5036128;28;20522;-44
2023/05/23 03:45:34;;;;;;;30.20;16.55;;;12.40;95.60;;;;;;5054708;28;20447;-45
2023/05/23 03:48:00;;;;;;;26.83;15.38;;;12.40;95.60;;;;;;5051734;28;20527;-46
2023/05/23 03:50:27;;;;;;;25.77;15.63;;;12.40;95.60;;;;;;5017322;28;20068;-45
2023/05/23 03:52:54;;;;;;;28.90;15.05;;;12.40;95.60;;;;;;5039348;28;20036;-45
2023/05/23 03:55:23;;;;;;;27.75;15.43;;;12.30;95.60;;;;;;5035075;28;20036;-46
2023/05/23 03:57:50;;;;;;;33.05;16.00;;;12.30;95.60;;;;;;5022114;28;20026;-45
2023/05/23 04:00:18;;;;;;;35.70;16.33;;;12.30;95.70;;;;;;5034819;28;20108;-43
2023/05/23 04:02:45;;;;;;;33.90;16.42;;;12.30;95.70;;;;;;5036798;28;20111;-45
2023/05/23 04:05:12;;;;;;;43.50;18.48;;;12.20;95.70;;;;;;5051471;28;20450;-43
2023/05/23 04:07:40;;;;;;;40.35;16.67;;;12.20;95.60;;;;;;5034347;28;20091;-43
2023/05/23 04:10:08;;;;;;;35.00;17.33;;;12.10;95.60;;;;;;5034453;28;20025;-46
2023/05/23 04:12:35;;;;;;;32.92;15.07;;;12.00;95.60;;;;;;5043153;28;20059;-43
2023/05/23 04:15:03;;;;;;;38.33;15.35;;;12.00;95.60;;;;;;5054213;28;20382;-43
2023/05/23 04:17:32;;;;;;;39.42;14.50;;;11.90;95.60;;;;;;5040754;28;20060;-44
2023/05/23 04:19:58;;;;;;;41.60;14.47;;;11.90;95.60;;;;;;5033882;28;20152;-44
2023/05/23 04:22:25;;;;;;;41.67;13.55;;;11.90;95.60;;;;;;5034304;28;20529;-43
2023/05/23 04:24:52;;;;;;;35.40;14.10;;;11.90;95.70;;;;;;5035936;28;20037;-43
2023/05/23 04:27:18;;;;;;;29.13;12.65;;;11.80;95.70;;;;;;5043933;28;20029;-43
2023/05/23 04:29:45;;;;;;;37.10;12.88;;;11.80;95.60;;;;;;5052780;28;20120;-44
2023/05/23 04:32:13;;;;;;;29.40;10.82;;;11.70;95.60;;;;;;5053954;28;20017;-45
2023/05/23 04:34:40;;;;;;;28.08;10.93;;;11.70;95.60;;;;;;5035849;28;20025;-45
2023/05/23 04:37:08;;;;;;;30.92;11.48;;;11.60;95.50;;;;;;5033790;28;20030;-44
2023/05/23 04:39:35;;;;;;;30.70;12.27;;;11.60;95.50;;;;;;5032537;28;20043;-44
2023/05/23 04:42:02;;;;;;;31.73;11.55;;;11.60;95.50;;;;;;5036313;28;20048;-44
2023/05/23 04:44:29;;;;;;;26.30;11.40;;;11.60;95.50;;;;;;5047808;28;20064;-44
2023/05/23 04:46:56;;;;;;;30.73;10.30;;;11.60;95.50;;;;;;5016334;28;20029;-43
2023/05/23 04:49:24;;;;;;;30.58;10.48;;;11.50;95.30;;;;;;5038828;28;20032;-45
2023/05/23 04:51:51;;;;;;;30.05;10.95;;;11.50;95.40;;;;;;5038731;28;20021;-45
2023/05/23 04:54:18;;;;;;;24.08;10.60;;;11.50;95.30;;;;;;5015638;28;20113;-44
2023/05/23 04:56:44;;;;;;;22.02;8.90;;;11.50;95.20;;;;;;5033381;28;20025;-42
2023/05/23 04:59:10;;;;;;;19.58;8.45;;;11.40;95.20;;;;;;5044080;28;20107;-43
2023/05/23 05:01:40;;;;;;;23.02;7.05;;;11.50;95.10;;;;;;5053278;28;20105;-43
2023/05/23 05:04:07;;;;;;;;;;;11.40;95.10;;;;;;5053964;28;20025;-43
2023/05/23 05:06:33;;;;;;;23.40;8.27;;;11.50;95.10;;;;;;5031402;28;19909;-44
2023/05/23 05:09:01;;;;;;;18.00;5.97;;;11.40;95.00;;;;;;5047579;28;20394;-42
2023/05/23 05:11:28;;;;;;;16.70;6.28;;;11.50;94.90;;;;;;5035270;28;20025;-44
2023/05/23 05:13:57;;;;;;;15.30;5.00;;;11.40;94.70;;;;;;5034388;28;20378;-44
2023/05/23 05:16:25;;;;;;;19.20;6.13;;;11.50;94.70;;;;;;5053287;28;20312;-43
2023/05/23 05:18:52;;;;;;;16.02;5.35;;;11.40;94.60;;;;;;5049470;28;20386;-44
2023/05/23 05:21:17;;;;;;;18.08;4.95;;;11.50;94.50;;;;;;5052972;28;20385;-43
2023/05/23 05:23:44;;;;;;;19.50;4.93;;;11.40;94.30;;;;;;5053064;28;20021;-43
2023/05/23 05:26:11;;;;;;;18.13;6.50;;;11.40;94.20;;;;;;5035193;28;20104;-43
2023/05/23 05:28:39;;;;;;;20.55;5.38;;;11.50;94.20;;;;;;5041021;28;20444;-42
2023/05/23 05:31:07;;;;;;;14.90;4.45;;;11.40;94.00;;;;;;5035933;28;20044;-43
2023/05/23 05:33:34;;;;;;;20.27;4.95;;;11.40;94.00;;;;;;5051449;28;20135;-44
2023/05/23 05:36:02;;;;;;;13.68;5.22;;;11.40;93.80;;;;;;5033109;28;20482;-44
2023/05/23 05:38:29;;;;;;;22.92;5.00;;;11.40;93.60;;;;;;5044723;28;20390;-43
2023/05/23 05:40:56;;;;;;;20.38;5.75;;;11.40;93.60;;;;;;5037505;28;20037;-43
2023/05/23 05:43:22;;;;;;;18.70;7.10;;;11.40;93.60;;;;;;5023195;28;20086;-42
2023/05/23 05:45:49;;;;;;;21.65;4.68;;;11.40;93.50;;;;;;5041642;28;20108;-46
2023/05/23 05:48:16;;;;;;;15.52;6.80;;;11.40;93.40;;;;;;5026749;28;20025;-43
2023/05/23 05:50:44;;;;;;;17.50;4.65;;;11.40;93.20;;;;;;5034484;28;20032;-42
2023/05/23 05:53:12;;;;;;;18.15;5.13;;;11.40;93.30;;;;;;5033322;28;20017;-43
2023/05/23 05:55:39;;;;;;;17.45;5.30;;;11.30;93.50;;;;;;5032763;28;20049;-43
2023/05/23 05:58:06;;;;;;;17.30;5.85;;;11.40;93.70;;;;;;5038674;28;20017;-43
2023/05/23 06:00:40;;;;;;;19.83;5.85;;;11.30;93.80;;;;;;5036876;28;20457;-42
2023/05/23 06:03:08;;;;;;;20.50;6.20;;;11.30;94.00;;;;;;5056881;28;20035;-43
2023/05/23 06:05:36;;;;;;;25.38;6.82;;;11.20;94.00;;;;;;5055949;28;20103;-45
2023/05/23 06:08:03;;;;;;;25.45;7.53;;;11.20;93.90;;;;;;5040201;28;20056;-43
2023/05/23 06:10:30;;;;;;;29.60;8.38;;;11.20;94.00;;;;;;5056121;28;20458;-43
2023/05/23 06:12:58;;;;;;;18.98;8.70;;;11.20;94.00;;;;;;5038260;28;20123;-43
2023/05/23 06:15:25;;;;;;;25.10;7.82;;;11.20;93.90;;;;;;5055149;28;20027;-44
2023/05/23 06:17:52;;;;;;;24.50;9.00;;;11.20;93.90;;;;;;5052251;28;20027;-43
2023/05/23 06:20:18;;;;;;;23.10;8.05;;;11.20;93.80;;;;;;5050894;28;20033;-43
2023/05/23 06:22:45;;;;;;;23.63;6.90;;;11.10;93.70;;;;;;5054700;28;20068;-43
2023/05/23 06:25:12;;;;;;;20.00;6.97;;;11.00;93.50;;;;;;5044565;28;20044;-42
2023/05/23 06:27:39;;;;;;;20.38;6.18;;;11.00;93.50;;;;;;5050462;28;20095;-43
2023/05/23 06:30:06;;;;;;;15.10;6.28;;;11.10;93.40;;;;;;5052441;28;20355;-42
2023/05/23 06:32:32;;;;;;;16.73;6.70;;;11.10;93.20;;;;;;5037805;28;20090;-42
2023/05/23 06:34:59;;;;;;;16.98;5.35;;;11.10;93.10;;;;;;5042056;28;20025;-43
2023/05/23 06:37:26;;;;;;;25.45;6.10;;;11.00;93.00;;;;;;5046320;28;20056;-43
2023/05/23 06:39:57;;;;;;;21.98;8.57;;;11.10;93.00;;;;;;5021812;28;20065;-43
2023/05/23 06:42:26;;;;;;;28.27;6.95;;;11.10;92.80;;;;;;5055550;28;20045;-42
2023/05/23 06:44:53;;;;;;;19.40;5.78;;;11.10;92.80;;;;;;5054604;28;20040;-44
2023/05/23 06:47:22;;;;;;;13.25;6.57;;;11.10;92.50;;;;;;5034292;28;20033;-42
2023/05/23 06:49:49;;;;;;;23.50;6.57;;;11.10;92.60;;;;;;5018129;28;20064;-41
2023/05/23 06:52:16;;;;;;;21.83;6.60;;;11.10;92.40;;;;;;5035946;28;20105;-42
2023/05/23 06:54:45;;;;;;;17.13;5.70;;;11.10;92.40;;;;;;5040374;28;20029;-42
2023/05/23 06:57:14;;;;;;;22.45;6.35;;;11.00;92.50;;;;;;5035520;28;20113;-42
2023/05/23 06:59:41;;;;;;;14.25;5.28;;;11.00;92.50;;;;;;5044655;28;20047;-43
2023/05/23 07:02:08;;;;;;;29.77;6.82;;;11.00;92.60;;;;;;5043950;28;20175;-42
2023/05/23 07:04:33;;;;;;;14.30;5.72;;;11.00;92.80;;;;;;5021379;28;20458;-44
2023/05/23 07:07:03;;;;;;;18.35;4.55;;;10.90;92.70;;;;;;5055426;28;20083;-44
2023/05/23 07:09:29;;;;;;;14.63;5.13;;;10.90;92.70;;;;;;5045500;28;20462;-41
2023/05/23 07:11:58;;;;;;;12.07;4.38;;;10.90;92.40;;;;;;5035449;28;20036;-42
2023/05/23 07:14:23;;;;;;;15.43;5.18;;;10.90;91.70;;;;;;5040831;28;20029;-41
2023/05/23 07:16:53;;;;;;;14.98;4.50;;;10.90;91.40;;;;;;5055350;28;20025;-42
2023/05/23 07:19:20;;;;;;;19.50;4.85;;;10.90;91.10;;;;;;5055271;28;20035;-42
2023/05/23 07:21:47;;;;;;;12.07;3.95;;;10.90;91.20;;;;;;5033209;28;20099;-45
2023/05/23 07:24:17;;;;;;;20.33;6.65;;;10.90;91.00;;;;;;5037818;28;20048;-42
2023/05/23 07:26:44;;;;;;;13.68;3.92;;;10.80;91.10;;;;;;5030399;28;20060;-42
2023/05/23 07:29:11;;;;;;;14.73;4.93;;;10.80;90.80;;;;;;5018688;28;20093;-42
2023/05/23 07:31:38;;;;;;;21.15;5.38;;;10.80;91.00;;;;;;5047831;28;20340;-42
2023/05/23 07:34:08;;;;;;;17.73;5.55;;;10.80;90.80;;;;;;5035061;28;20041;-42
2023/05/23 07:36:36;;;;;;;14.57;5.15;;;10.80;90.90;;;;;;5035073;28;20116;-42
2023/05/23 07:39:03;;;;;;;13.80;6.40;;;10.80;90.60;;;;;;5034764;28;20025;-42
2023/05/23 07:41:32;;;;;;;19.65;5.35;;;10.90;90.60;;;;;;5038745;28;20036;-42
2023/05/23 07:43:58;;;;;;;24.10;5.28;;;10.90;90.60;;;;;;5036882;28;20441;-42
2023/05/23 07:46:24;;;;;;;18.23;4.80;;;11.00;90.80;;;;;;5048704;28;20117;-42
2023/05/23 07:48:51;;;;;;;15.57;4.90;;;11.00;90.40;;;;;;5034753;28;20659;-43
2023/05/23 07:51:20;;;;;;;17.98;4.85;;;10.90;89.30;;;;;;5040027;28;20037;-42
2023/05/23 07:53:47;;;;;;;11.95;4.18;;;11.00;89.10;;;;;;5019038;28;20026;-42
2023/05/23 07:56:14;;;;;;;17.80;4.38;;;11.10;89.00;;;;;;5035089;28;20049;-44
2023/05/23 07:58:41;;;;;;;12.05;3.88;;;11.20;88.50;;;;;;5017157;28;20442;-43
2023/05/23 08:01:08;;;;;;;10.32;3.63;;;11.10;87.90;;;;;;5029816;28;20465;-45
2023/05/23 08:03:36;;;;;;;13.20;4.13;;;11.10;87.50;;;;;;5045823;28;20114;-43
2023/05/23 08:06:08;;;;;;;17.30;3.95;;;11.20;87.40;;;;;;5034235;28;20109;-43
2023/05/23 08:08:37;;;;;;;15.63;3.58;;;11.20;87.10;;;;;;5034885;28;20029;-42
2023/05/23 08:11:03;;;;;;;;;;;11.30;87.40;;;;;;5040012;28;20156;-43
2023/05/23 08:13:32;;;;;;;13.88;3.53;;;11.30;85.30;;;;;;5054451;28;20003;-46
2023/05/23 08:15:59;;;;;;;14.30;4.40;;;11.30;83.70;;;;;;5045639;28;20021;-47
2023/05/23 08:18:27;;;;;;;15.98;4.15;;;11.40;83.70;;;;;;5054348;28;20029;-45
2023/05/23 08:20:53;;;;;;;13.88;3.45;;;11.70;83.10;;;;;;5042033;28;20025;-45
2023/05/23 08:23:21;;;;;;;15.82;4.78;;;11.90;81.70;;;;;;5053747;28;20493;-43
2023/05/23 08:25:48;;;;;;;19.08;4.88;;;11.90;80.70;;;;;;5035653;28;20033;-43
2023/05/23 08:28:20;;;;;;;14.38;3.88;;;11.80;80.20;;;;;;5035218;28;20398;-45
2023/05/23 08:30:46;;;;;;;17.02;4.40;;;11.90;80.50;;;;;;5052291;28;20029;-44
2023/05/23 08:33:15;;;;;;;21.50;6.10;;;11.90;80.00;;;;;;5053857;28;20365;-44
2023/05/23 08:35:42;;;;;;;22.52;4.97;;;11.90;81.10;;;;;;5053543;28;20486;-44
2023/05/23 08:38:09;;;;;;;10.30;4.25;;;11.90;80.20;;;;;;5048933;28;20033;-42
2023/05/23 08:40:36;;;;;;;20.30;4.53;;;12.10;81.00;;;;;;5016332;28;20461;-44
2023/05/23 08:43:04;;;;;;;15.43;5.05;;;12.20;80.60;;;;;;5052853;28;20074;-43
2023/05/23 08:45:33;;;;;;;16.98;4.40;;;12.20;78.30;;;;;;5051908;28;20033;-45
2023/05/23 08:48:04;;;;;;;18.67;3.78;;;12.20;78.30;;;;;;5000288;28;20061;-45
2023/05/23 08:50:38;;;;;;;14.65;4.30;;;12.20;78.90;;;;;;5033660;28;20033;-47
2023/05/23 08:53:07;;;;;;;17.70;4.32;;;12.10;79.00;;;;;;5050761;28;20455;-44
2023/05/23 08:55:36;;;;;;;15.32;4.68;;;12.00;79.50;;;;;;5053253;28;20108;-44
2023/05/23 08:58:03;;;;;;;15.65;4.03;;;12.10;80.90;;;;;;5035698;28;20025;-45
2023/05/23 09:00:32;;;;;;;17.40;5.38;;;11.90;80.00;;;;;;5049927;28;20049;-43
2023/05/23 09:03:01;;;;;;;14.13;4.85;;;11.80;80.10;;;;;;5053320;28;20032;-43
2023/05/23 09:05:27;;;;;;;22.63;5.72;;;11.90;80.90;;;;;;5053121;28;20033;-45
2023/05/23 09:07:55;;;;;;;14.20;4.55;;;12.10;79.60;;;;;;5053319;28;20108;-44
2023/05/23 09:10:21;;;;;;;13.70;5.40;;;12.30;80.40;;;;;;5034999;28;20100;-45
2023/05/23 09:12:48;;;;;;;22.20;5.65;;;12.50;79.80;;;;;;5050988;28;20033;-44
2023/05/23 09:15:17;;;;;;;21.67;5.65;;;12.70;78.80;;;;;;5052468;28;20106;-44
2023/05/23 09:17:44;;;;;;;23.67;5.57;;;12.70;77.80;;;;;;5028073;28;20031;-43
2023/05/23 09:20:15;;;;;;;16.63;3.80;;;12.70;78.00;;;;;;5033134;28;20036;-43
2023/05/23 09:22:52;;;;;;;19.42;6.03;;;12.60;77.80;;;;;;5051319;28;20114;-44
2023/05/23 09:25:21;;;;;;;19.13;4.80;;;12.70;77.10;;;;;;5040997;28;20518;-44
2023/05/23 09:27:48;;;;;;;17.02;5.65;;;12.90;77.10;;;;;;5015578;28;20037;-44
2023/05/23 09:30:16;;;;;;;19.95;4.80;;;13.00;76.40;;;;;;5046347;28;20378;-43
2023/05/23 09:32:57;;;;;;;13.18;4.63;;;13.10;75.70;;;;;;5048826;28;20102;-45
2023/05/23 09:35:27;;;;;;;18.50;5.13;;;13.30;76.80;;;;;;5033002;28;20378;-44
2023/05/23 09:37:54;;;;;;;19.60;5.53;;;13.40;76.30;;;;;;5033014;28;20025;-44
2023/05/23 09:40:21;;;;;;;21.05;6.32;;;13.40;76.80;;;;;;5033606;28;20053;-47
2023/05/23 09:42:50;;;;;;;20.55;5.47;;;13.20;76.10;;;;;;5047472;28;20040;-44
2023/05/23 09:45:17;;;;;;;16.17;5.03;;;13.10;76.00;;;;;;5052065;28;20056;-44
2023/05/23 09:47:50;;;;;;;20.17;5.05;;;12.80;76.10;;;;;;5051265;28;20037;-44
2023/05/23 09:50:18;;;;;;;14.05;5.05;;;12.80;76.30;;;;;;5032789;28;20186;-46
2023/05/23 09:52:45;;;;;;;15.48;5.03;;;12.80;77.30;;;;;;5043752;28;20053;-44
2023/05/23 09:55:14;;;;;;;20.60;6.15;;;12.70;77.20;;;;;;5052830;28;20025;-44
2023/05/23 09:57:43;;;;;;;20.50;7.00;;;12.70;78.60;;;;;;5033909;28;20060;-44
2023/05/23 10:00:12;;;;;;;20.55;6.68;;;12.80;79.40;;;;;;5038962;28;20041;-45
2023/05/23 10:03:16;;;;;;;18.90;5.43;;;12.80;78.30;;;;;;5034236;28;20029;-44
2023/05/23 10:05:46;;;;;;;16.10;4.80;;;13.00;76.00;;;;;;5053149;28;20079;-44
2023/05/23 10:08:21;;;;;;;16.98;5.28;;;12.60;76.50;;;;;;5037684;28;20050;-44
2023/05/23 10:11:29;;;;;;;16.60;4.78;;;12.30;78.30;;;;;;5026571;28;20033;-44
2023/05/23 10:14:01;;;;;;;22.85;5.32;;;12.10;78.00;;;;;;5019153;28;20043;-44
2023/05/23 10:16:45;;;;;;;15.77;3.80;;;12.20;76.00;;;;;;5033364;28;20045;-44
2023/05/23 10:19:25;;;;;;;21.33;5.68;;;12.40;74.60;;;;;;5052118;28;20040;-45
2023/05/23 10:21:59;;;;;;;;;;;12.70;74.10;;;;;;5050501;28;20371;-44
2023/05/23 10:24:27;;;;;;;18.88;4.82;;;12.80;74.70;;;;;;5037704;28;19931;-44
2023/05/23 10:26:55;;;;;;;17.60;4.70;;;12.90;75.30;;;;;;5052078;28;20035;-44
2023/05/23 10:29:26;;;;;;;14.80;4.32;;;12.70;76.70;;;;;;5030860;28;20033;-44
2023/05/23 10:31:54;;;;;;;14.68;4.60;;;13.00;75.20;;;;;;5050629;28;20496;-45
2023/05/23 10:34:29;;;;;;;14.23;3.70;;;13.30;72.50;;;;;;5051767;28;20025;-45
2023/05/23 10:37:22;;;;;;;15.30;4.45;;;13.20;72.70;;;;;;5045428;28;20107;-44
2023/05/23 10:40:23;;;;;;;21.65;5.40;;;12.90;74.60;;;;;;5032197;28;20038;-45
2023/05/23 10:43:13;;;;;;;18.35;5.88;;;12.70;75.00;;;;;;5040578;28;20024;-44
2023/05/23 10:45:42;;;;;;;15.52;5.50;;;12.40;77.00;;;;;;5055070;28;20029;-44
2023/05/23 10:48:41;;;;;;;21.27;5.28;;;12.60;78.30;;;;;;5052309;28;20033;-44
2023/05/23 10:51:13;;;;;;;24.25;5.05;;;12.70;76.70;;;;;;5023686;28;20041;-44
2023/05/23 10:53:45;;;;;;;18.60;4.95;;;12.90;76.20;;;;;;5046774;28;20087;-45
2023/05/23 10:56:22;;;;;;;19.85;5.32;;;13.30;74.10;;;;;;5055097;28;20082;-45
2023/05/23 10:58:54;;;;;;;12.93;3.80;;;13.10;74.20;;;;;;5044806;28;20026;-46
2023/05/23 11:01:21;;;;;;;18.42;5.25;;;13.30;71.90;;;;;;5045810;28;20429;-44
2023/05/23 11:03:51;;;;;;;15.55;4.82;;;13.30;72.30;;;;;;5055559;28;20378;-45
2023/05/23 11:06:43;;;;;;;17.10;4.72;;;13.70;72.30;;;;;;5049916;28;20474;-44
2023/05/23 11:09:11;;;;;;;13.68;3.60;;;14.00;70.10;;;;;;5035920;28;20029;-44
2023/05/23 11:12:04;;;;;;;11.52;3.95;;;14.10;68.80;;;;;;5035838;28;20029;-45
2023/05/23 11:14:36;;;;;;;13.20;4.13;;;13.90;69.60;;;;;;5035394;28;20021;-44
2023/05/23 11:17:16;;;;;;;22.20;4.78;;;14.20;71.40;;;;;;5053849;28;20025;-45
2023/05/23 11:20:22;;;;;;;16.42;4.97;;;14.60;72.60;;;;;;5049230;28;20397;-44
2023/05/23 11:23:01;;;;;;;12.65;4.72;;;14.60;71.40;;;;;;5051461;28;20457;-46
2023/05/23 11:25:52;;;;;;;17.92;4.20;;;14.70;71.80;;;;;;5054828;28;20164;-45
2023/05/23 11:28:19;;;;;;;18.50;4.85;;;14.90;70.60;;;;;;5054749;28;20028;-44
2023/05/23 11:30:52;;;;;;;13.05;4.03;;;14.90;70.10;;;;;;5052027;28;20065;-46
2023/05/23 11:33:20;;;;;;;14.77;4.00;;;14.70;66.50;;;;;;5037397;28;20033;-44
2023/05/23 11:35:48;;;;;;;16.23;4.22;;;14.60;67.30;;;;;;5037829;28;20037;-44
2023/05/23 11:38:15;;;;;;;17.15;5.80;;;14.90;67.00;;;;;;5035078;28;20025;-44
2023/05/23 11:40:44;;;;;;;18.55;5.97;;;14.40;67.50;;;;;;5040287;28;20040;-46
2023/05/23 11:43:16;;;;;;;19.38;4.78;;;13.90;70.40;;;;;;5034717;28;20030;-45
2023/05/23 11:45:45;;;;;;;17.05;4.38;;;14.10;70.70;;;;;;5034199;28;20041;-44
2023/05/23 11:48:15;;;;;;;19.45;5.10;;;14.70;71.00;;;;;;5034760;28;20042;-45
2023/05/23 11:50:54;;;;;;;19.08;4.20;;;15.20;69.60;;;;;;5034927;28;20040;-45
2023/05/23 11:53:24;;;;;;;12.90;4.55;;;14.90;67.90;;;;;;5027763;28;20430;-44
2023/05/23 11:56:08;;;;;;;16.63;5.63;;;14.80;69.30;;;;;;5036471;28;20108;-45
2023/05/23 11:58:54;;;;;;;14.88;4.85;;;14.40;69.60;;;;;;5034862;28;20470;-45
2023/05/23 12:01:21;;;;;;;21.67;6.80;;;14.50;69.60;;;;;;5021165;28;20040;-45
2023/05/23 12:03:50;;;;;;;15.85;4.88;;;14.40;70.90;;;;;;5052893;28;20043;-45
2023/05/23 12:06:23;;;;;;;18.52;5.05;;;14.50;70.50;;;;;;5036132;28;20112;-46
2023/05/23 12:08:50;;;;;;;15.30;3.90;;;14.40;69.70;;;;;;5031339;28;20048;-46
2023/05/23 12:11:25;;;;;;;11.50;4.30;;;14.50;69.80;;;;;;5017004;28;20037;-47
2023/05/23 12:13:54;;;;;;;14.65;5.10;;;14.20;69.00;;;;;;5048519;28;20498;-45
2023/05/23 12:16:20;;;;;;;18.53;5.10;;;14.20;69.70;;;;;;5053520;28;20037;-45
2023/05/23 12:18:47;;;;;;;18.58;4.38;;;13.90;71.00;;;;;;5039978;28;20287;-45
2023/05/23 12:21:13;;;;;;;18.63;4.22;;;13.60;72.20;;;;;;5016297;28;20029;-47
2023/05/23 12:23:41;;;;;;;14.80;3.92;;;13.40;71.40;;;;;;5041651;28;20044;-45
2023/05/23 12:26:08;;;;;;;17.38;5.03;;;13.50;71.80;;;;;;5034086;28;20033;-46
2023/05/23 12:28:43;;;;;;;15.98;5.53;;;13.30;72.80;;;;;;5030860;28;20025;-45
2023/05/23 12:31:23;;;;;;;15.15;5.07;;;13.30;74.70;;;;;;5053225;28;20116;-45
2023/05/23 12:33:52;;;;;;;22.98;4.75;;;13.40;73.60;;;;;;5052976;28;20033;-46
2023/05/23 12:36:25;;;;;;;19.25;5.13;;;13.10;73.20;;;;;;5032172;28;20112;-44
2023/05/23 12:38:52;;;;;;;23.23;4.80;;;12.90;75.50;;;;;;5033735;28;20033;-45
2023/05/23 12:41:20;;;;;;;21.45;5.00;;;12.90;75.60;;;;;;5037501;28;20021;-48
2023/05/23 12:43:53;;;;;;;18.10;4.00;;;13.70;73.50;;;;;;5017934;28;20170;-45
2023/05/23 12:46:20;;;;;;;17.98;5.15;;;13.60;73.30;;;;;;5035211;28;20044;-44